Terminal Aerodrome Forecast
Issued by NWS

Home | Current Version | Previous Version | Text Only | Print | Product List | Glossary On
Versions: 1 2 3 4 5 6 7 8 9 10 11 12 13 14 15 16
000
FTUS43 KGRB 271600 AAB
TAFMTW
TAF AMD
KMTW 271624Z 2716/2812 30012G18KT P6SM SCT035 BKN080
      TEMPO 2718/2720 3SM -SHRA BR SCT020 BKN030
     FM272200 36014G19KT P6SM VCSH SCT015 BKN040
     FM280100 35012KT P6SM BKN100
     FM280400 36011KT P6SM FEW100=

USA.gov is the U.S. government's official web portal to all federal, state and local government web resources and services.